Terminal Aerodrome Forecast
Issued by NWS Albany, NY

Home | Current Version | Previous Version | Text Only | Print | Product List | Glossary On
Versions: 1 2 3 4 5 6 7 8 9 10 11 12 13 14 15 16 17
000
FTUS41 KALY 211100
TAFGFL
TAF
KGFL 211135Z 2112/2212 00000KT P6SM -SHRA SCT040 OVC060
     FM211500 03005KT 6SM -SHRA BR SCT030 OVC040
     FM220000 02005KT 6SM -SHRA BR OVC030
     FM220500 01006KT 4SM BR VCSH OVC020=

USA.gov is the U.S. government's official web portal to all federal, state and local government web resources and services.